createdAt,value
2023-03-29T00:02:56.970Z,5.70
2023-03-29T00:08:59.679Z,5.70
2023-03-29T00:15:02.011Z,5.50
2023-03-29T00:21:04.359Z,5.50
2023-03-29T00:27:06.485Z,5.40
2023-03-29T00:33:08.697Z,5.30
2023-03-29T00:39:10.729Z,5.20
2023-03-29T00:45:12.490Z,5.00
2023-03-29T00:51:17.050Z,4.90
2023-03-29T00:57:19.667Z,4.80
2023-03-29T01:03:27.563Z,4.80
2023-03-29T01:09:33.889Z,4.80
2023-03-29T01:15:41.072Z,4.70
2023-03-29T01:21:56.280Z,4.60
2023-03-29T01:28:02.705Z,4.60
2023-03-29T01:34:11.407Z,4.50
2023-03-29T01:40:13.338Z,4.50
2023-03-29T01:46:33.506Z,4.50
2023-03-29T01:53:07.792Z,4.50
2023-03-29T01:59:14.037Z,4.50
2023-03-29T02:05:17.871Z,4.40
2023-03-29T02:11:22.083Z,4.30
2023-03-29T02:17:26.499Z,4.20
2023-03-29T02:23:35.037Z,4.20
2023-03-29T02:29:36.891Z,4.20
2023-03-29T02:35:53.332Z,4.10
2023-03-29T02:41:56.099Z,4.20
2023-03-29T02:48:03.379Z,4.20
2023-03-29T02:54:08.888Z,4.20
2023-03-29T03:00:12.236Z,4.20
2023-03-29T03:06:14.672Z,4.30
2023-03-29T03:12:16.617Z,4.40
2023-03-29T03:18:18.457Z,4.40
2023-03-29T03:24:20.340Z,4.50
2023-03-29T03:30:22.263Z,4.40
2023-03-29T03:36:26.228Z,4.40
2023-03-29T03:42:29.755Z,4.40
2023-03-29T03:48:31.727Z,4.50
2023-03-29T03:54:34.120Z,4.50
2023-03-29T04:00:35.944Z,4.50
2023-03-29T04:06:39.144Z,4.60
2023-03-29T04:12:42.027Z,4.60
2023-03-29T04:18:44.217Z,4.60
2023-03-29T04:24:46.355Z,4.60
2023-03-29T04:30:49.063Z,4.50
2023-03-29T04:36:51.082Z,4.70
2023-03-29T04:42:53.610Z,4.70
2023-03-29T04:48:55.601Z,4.70
2023-03-29T04:54:57.460Z,4.70
2023-03-29T05:00:59.562Z,4.70
2023-03-29T05:07:02.274Z,4.70
2023-03-29T05:13:04.638Z,4.70
2023-03-29T05:19:06.575Z,4.70
2023-03-29T05:25:11.048Z,4.80
2023-03-29T05:31:16.195Z,4.80
2023-03-29T05:37:19.039Z,4.90
2023-03-29T05:43:20.977Z,4.90
2023-03-29T05:49:22.993Z,5.00
2023-03-29T05:55:24.964Z,5.10
2023-03-29T06:01:27.018Z,5.20
2023-03-29T06:07:28.797Z,5.30
2023-03-29T06:13:32.224Z,5.50
2023-03-29T06:19:34.144Z,5.60
2023-03-29T06:25:35.893Z,5.60
2023-03-29T06:31:37.926Z,5.60
2023-03-29T06:37:49.816Z,5.60
2023-03-29T06:43:51.882Z,5.60
2023-03-29T06:49:54.106Z,5.70
2023-03-29T06:55:56.458Z,5.70
2023-03-29T07:01:58.666Z,5.90
2023-03-29T07:08:02.974Z,6.00
2023-03-29T07:14:04.781Z,6.00
2023-03-29T07:20:12.842Z,6.10
2023-03-29T07:26:14.779Z,6.10
2023-03-29T07:32:31.807Z,6.20
2023-03-29T07:38:34.448Z,6.20
2023-03-29T07:44:37.554Z,6.20
2023-03-29T07:50:39.520Z,6.30
2023-03-29T07:56:41.669Z,6.40
2023-03-29T08:02:45.053Z,6.60
2023-03-29T08:08:47.111Z,6.70
2023-03-29T08:14:48.991Z,6.70
2023-03-29T08:20:52.130Z,6.60
2023-03-29T08:26:54.019Z,6.70
2023-03-29T08:32:56.684Z,6.70
2023-03-29T08:38:58.652Z,6.60
2023-03-29T08:45:17.845Z,6.60
2023-03-29T08:51:22.031Z,6.70
2023-03-29T08:57:29.255Z,6.90
2023-03-29T09:03:48.472Z,6.90
2023-03-29T09:09:50.552Z,6.90
2023-03-29T09:16:06.180Z,7.00
2023-03-29T09:22:33.856Z,7.00
2023-03-29T09:28:37.654Z,7.10
2023-03-29T09:34:45.752Z,7.40
2023-03-29T09:40:54.023Z,7.60
2023-03-29T09:47:02.156Z,7.80
2023-03-29T09:53:05.605Z,7.90
2023-03-29T09:59:10.558Z,8.10
2023-03-29T10:05:16.560Z,8.30
2023-03-29T10:11:28.932Z,8.50
2023-03-29T10:17:40.350Z,8.40
2023-03-29T10:23:42.782Z,8.70
2023-03-29T10:29:44.810Z,8.90
2023-03-29T10:35:48.965Z,9.00
2023-03-29T10:41:53.201Z,9.30
2023-03-29T10:47:57.174Z,9.40
2023-03-29T10:54:00.156Z,9.70
2023-03-29T11:00:07.413Z,9.70
2023-03-29T11:06:24.388Z,10.00
2023-03-29T11:12:44.455Z,9.70
2023-03-29T11:19:31.558Z,9.90
2023-03-29T11:26:15.201Z,9.20
2023-03-29T11:32:56.079Z,9.10
2023-03-29T11:39:14.032Z,9.10
2023-03-29T11:45:25.695Z,9.10
2023-03-29T11:51:41.422Z,9.20
2023-03-29T11:58:18.820Z,9.10
2023-03-29T12:04:29.117Z,8.80
2023-03-29T12:11:02.521Z,8.90
2023-03-29T12:17:10.666Z,8.90
2023-03-29T12:23:16.781Z,9.00
2023-03-29T12:29:37.585Z,9.10
2023-03-29T12:36:01.685Z,9.00
2023-03-29T12:42:20.379Z,9.00
2023-03-29T12:48:28.612Z,9.10
2023-03-29T12:54:33.937Z,9.10
2023-03-29T13:00:42.770Z,9.00
2023-03-29T13:06:47.641Z,9.00
2023-03-29T13:12:50.994Z,9.00
2023-03-29T13:19:29.750Z,9.00
2023-03-29T13:25:53.994Z,9.00
2023-03-29T13:31:58.110Z,9.00
2023-03-29T13:38:11.943Z,9.20
2023-03-29T13:44:22.958Z,9.10
2023-03-29T13:50:37.633Z,9.10
2023-03-29T13:56:43.593Z,9.10
2023-03-29T14:02:50.574Z,9.00
2023-03-29T14:08:53.675Z,9.00
2023-03-29T14:15:02.018Z,9.00
2023-03-29T14:21:04.353Z,9.00
2023-03-29T14:27:10.225Z,9.20
2023-03-29T14:33:27.356Z,9.20
2023-03-29T14:39:33.698Z,9.20
2023-03-29T14:45:36.116Z,9.30
2023-03-29T14:51:40.505Z,9.30
2023-03-29T14:57:42.454Z,9.40
2023-03-29T15:03:50.162Z,9.40
2023-03-29T15:09:52.263Z,9.50
2023-03-29T15:16:00.756Z,9.40
2023-03-29T15:22:11.315Z,9.50
2023-03-29T15:28:31.253Z,9.60
2023-03-29T15:34:34.517Z,9.60
2023-03-29T15:40:36.622Z,9.70
2023-03-29T15:46:38.473Z,9.70
2023-03-29T15:52:43.334Z,9.80
2023-03-29T15:58:46.238Z,9.80
2023-03-29T16:04:48.191Z,9.80
2023-03-29T16:10:50.769Z,10.00
2023-03-29T16:16:57.416Z,9.90
2023-03-29T16:22:59.406Z,10.00
2023-03-29T16:29:01.499Z,10.10
2023-03-29T16:35:04.555Z,10.20
2023-03-29T16:41:07.836Z,10.10
2023-03-29T16:47:12.328Z,10.10
2023-03-29T16:53:14.271Z,10.10
2023-03-29T16:59:16.574Z,10.00
2023-03-29T17:05:19.430Z,10.00
2023-03-29T17:11:23.993Z,9.90
2023-03-29T17:17:25.859Z,9.80
2023-03-29T17:23:27.796Z,9.70
2023-03-29T17:29:29.789Z,9.70
2023-03-29T17:35:32.375Z,9.60
2023-03-29T17:41:34.336Z,9.70
2023-03-29T17:47:36.997Z,9.70
2023-03-29T17:53:38.891Z,9.70
2023-03-29T17:59:41.244Z,9.80
2023-03-29T18:05:43.185Z,9.80
2023-03-29T18:11:45.118Z,10.00
2023-03-29T18:17:47.418Z,9.80
2023-03-29T18:23:50.010Z,9.80
2023-03-29T18:29:52.085Z,9.80
2023-03-29T18:35:54.000Z,9.70
2023-03-29T18:41:56.578Z,9.60
2023-03-29T18:47:59.063Z,9.70
2023-03-29T18:54:01.193Z,9.60
2023-03-29T19:00:10.506Z,9.70
2023-03-29T19:06:14.290Z,9.60
2023-03-29T19:12:16.973Z,9.60
2023-03-29T19:18:19.535Z,9.50
2023-03-29T19:24:22.077Z,9.50
2023-03-29T19:30:23.927Z,9.40
2023-03-29T19:36:26.057Z,9.40
2023-03-29T19:42:28.134Z,9.40
2023-03-29T19:48:30.396Z,9.60
2023-03-29T19:54:32.713Z,10.00
2023-03-29T20:00:34.968Z,9.90
2023-03-29T20:06:37.125Z,9.90
2023-03-29T20:12:39.131Z,9.90
2023-03-29T20:18:41.082Z,9.80
2023-03-29T20:24:43.263Z,9.70
2023-03-29T20:30:45.675Z,9.80
2023-03-29T20:36:47.655Z,9.90
2023-03-29T20:42:49.471Z,10.00
2023-03-29T20:48:54.277Z,10.10
2023-03-29T20:54:56.061Z,10.20
2023-03-29T21:00:59.165Z,10.20
2023-03-29T21:07:03.320Z,10.20
2023-03-29T21:13:06.069Z,10.20
2023-03-29T21:19:09.026Z,10.20
2023-03-29T21:25:12.877Z,10.30
2023-03-29T21:31:14.722Z,10.30
2023-03-29T21:37:16.858Z,10.40
2023-03-29T21:43:18.705Z,10.30
2023-03-29T21:49:20.864Z,10.40
2023-03-29T21:55:22.907Z,10.50
2023-03-29T22:01:24.994Z,10.50
2023-03-29T22:07:27.011Z,10.60
2023-03-29T22:13:28.960Z,10.60
2023-03-29T22:19:30.838Z,10.70
2023-03-29T22:25:32.621Z,10.70
2023-03-29T22:31:34.555Z,10.70
2023-03-29T22:37:43.694Z,10.80
2023-03-29T22:43:45.937Z,10.80
2023-03-29T22:49:47.798Z,10.80
2023-03-29T22:55:50.061Z,10.90
2023-03-29T23:01:52.017Z,10.90
2023-03-29T23:07:56.061Z,10.90
2023-03-29T23:13:57.891Z,10.90
2023-03-29T23:19:59.749Z,11.00
2023-03-29T23:26:02.591Z,11.00
2023-03-29T23:32:04.611Z,11.00
2023-03-29T23:38:08.756Z,10.90
2023-03-29T23:44:10.678Z,10.90
2023-03-29T23:50:15.007Z,10.80
2023-03-29T23:56:16.957Z,10.80
